Estación Meteorológica Peña el Pijo (Robertgarden) [ 01/30/23 14:06:17 CET ]

Fecha Hora Presion(HPa) Temp (°C) Humedad % Rocio (°C) Viento ( m/s) Direccion Lluvia 1Hora(mm) Lluvia 24H(mm) LLuvia Total(mm)
2010-Oct-28 01:01:13 1017.900 3.4 47 -6.9         169.90
2010-Oct-28 02:01:13 1017.700 2.8 50 -6.6         169.90
2010-Oct-28 03:03:19 1017.500 2.6 51 -6.5         169.90
2010-Oct-28 04:01:17 1017.100 2.2 52 -6.6         169.90
2010-Oct-28 05:01:15 1016.800 1.8 55 -6.3         169.90
2010-Oct-28 06:01:12 1016.800 2.2 55 -5.9         169.90
2010-Oct-28 07:01:14 1016.700 1.8 57 -5.8         169.90
2010-Oct-28 08:01:18 1016.500 2.4 57 -5.3         169.90
2010-Oct-28 09:01:12 1016.500 4.2 52 -4.8         169.90
2010-Oct-28 10:01:14 1017.300 7.3 51 -2.2         169.90
2010-Oct-28 11:01:11 1017.300 13.1 38 -1.0         169.90
2010-Oct-28 12:01:14 1017.000 16.9 30 -0.8         169.90
2010-Oct-28 13:01:13 1016.800 19.8 23 -2.1         169.90
2010-Oct-28 14:01:12 1016.000 22.1 21 -1.4         169.90
2010-Oct-28 15:01:18 1014.800 26.3 17 -1.2         169.90
2010-Oct-28 16:01:14 1014.200 27.2 16 -1.4         169.90
2010-Oct-28 17:01:14 1013.800 24.1 17 -3.0         169.90
2010-Oct-28 18:01:13 1014.000 20.4 20 -3.3         169.90
2010-Oct-28 19:01:11 1013.700 16.6 25 -3.7         169.90
2010-Oct-28 20:01:14 1014.200 13.4 35 -1.9         169.90
2010-Oct-28 21:01:12 1014.200 11.3 42 -1.2         169.90
2010-Oct-28 22:01:13 1014.300 9.9 45 -1.6         169.90
2010-Oct-28 23:01:13 1014.100 8.2 51 -1.4         169.90

Temperatura Máxima:27°    Temperatura Mínima:
Presión Máxima:1017.900 Hpa    Presión Mínima:1013.700 Hpa


Volver